Time;durP1;ratioP1;P1;durP2;ratioP2;P2;SDS_P1;SDS_P2;PMS_P1;PMS_P2;Temp;Humidity;BMP_temperature;BMP_pressure;BME280_temperature;BME280_humidity;BME280_pressure;Samples;Min_cycle;Max_cycle;Signal;HPM_P1;HPM_P2
2023/10/14 00:01:13;;;;;;;4.10;3.90;;;23.30;50.80;;;;;;5005189;28;20468;-59
2023/10/14 00:03:45;;;;;;;4.17;3.87;;;23.30;50.00;;;;;;5001411;28;20827;-60
2023/10/14 00:06:12;;;;;;;4.20;4.00;;;23.30;50.00;;;;;;4990298;28;20453;-59
2023/10/14 00:08:55;;;;;;;3.93;3.63;;;23.20;49.90;;;;;;4993870;28;20464;-59
2023/10/14 00:11:21;;;;;;;4.00;3.80;;;23.30;50.00;;;;;;5006871;28;20473;-60
2023/10/14 00:13:52;;;;;;;3.97;3.67;;;23.30;50.10;;;;;;5002738;28;20500;-59
2023/10/14 00:18:51;;;;;;;4.90;4.60;;;23.30;50.00;;;;;;5005627;28;20489;-59
2023/10/14 00:21:17;;;;;;;4.53;4.23;;;23.30;50.00;;;;;;5010603;28;20464;-60
2023/10/14 00:23:43;;;;;;;4.63;4.33;;;23.20;49.90;;;;;;4991992;28;20449;-62
2023/10/14 00:26:16;;;;;;;4.53;4.13;;;23.20;49.90;;;;;;4991514;28;20306;-60
2023/10/14 00:28:45;;;;;;;4.53;4.23;;;23.20;49.90;;;;;;4990078;28;20239;-58
2023/10/14 00:31:15;;;;;;;4.43;4.23;;;23.20;50.00;;;;;;4990481;28;20498;-62
2023/10/14 00:33:41;;;;;;;4.50;4.20;;;23.20;49.90;;;;;;4989012;28;20862;-62
2023/10/14 00:36:16;;;;;;;4.90;4.60;;;23.20;49.90;;;;;;4993635;28;20573;-59
2023/10/14 00:38:45;;;;;;;4.37;4.10;;;23.30;50.00;;;;;;4998756;28;21041;-62
2023/10/14 00:41:12;;;;;;;5.03;4.53;;;23.30;50.00;;;;;;5000356;28;20813;-58
2023/10/14 00:43:41;;;;;;;5.00;4.53;;;23.20;50.00;;;;;;4989612;28;20462;-58
2023/10/14 00:46:12;;;;;;;4.40;4.00;;;23.20;49.90;;;;;;4997187;28;20457;-58
2023/10/14 00:48:40;;;;;;;5.70;5.20;;;23.30;50.00;;;;;;5005377;28;20459;-58
2023/10/14 00:51:10;;;;;;;4.90;4.60;;;23.20;50.00;;;;;;5015825;28;20947;-59
2023/10/14 00:53:38;;;;;;;5.30;5.00;;;23.20;49.90;;;;;;4993008;28;20455;-59
2023/10/14 00:56:04;;;;;;;4.47;4.27;;;23.20;49.90;;;;;;4999643;28;20459;-58
2023/10/14 00:58:29;;;;;;;4.50;4.20;;;23.30;50.10;;;;;;4991349;28;20949;-59
2023/10/14 01:00:58;;;;;;;4.90;4.63;;;23.20;50.00;;;;;;4989275;28;20220;-59
2023/10/14 01:03:31;;;;;;;4.40;4.20;;;23.20;50.00;;;;;;5005356;28;20239;-58
2023/10/14 01:06:17;;;;;;;4.70;4.40;;;23.30;50.10;;;;;;5007588;28;20471;-58
2023/10/14 01:08:43;;;;;;;4.97;4.67;;;23.20;50.00;;;;;;4998289;28;21278;-61
2023/10/14 01:11:09;;;;;;;4.67;4.33;;;23.20;50.00;;;;;;4993725;28;20459;-60
2023/10/14 01:13:36;;;;;;;4.53;4.33;;;23.20;50.00;;;;;;4993632;28;20483;-60
2023/10/14 01:16:08;;;;;;;4.90;4.60;;;23.20;50.00;;;;;;4996261;28;20450;-61
2023/10/14 01:18:38;;;;;;;4.40;4.10;;;23.20;50.10;;;;;;5004595;28;20460;-61
2023/10/14 01:21:06;;;;;;;4.37;4.07;;;23.20;50.00;;;;;;5007265;28;20453;-60
2023/10/14 01:23:35;;;;;;;5.90;5.50;;;23.20;50.00;;;;;;4992268;28;20532;-58
2023/10/14 01:26:04;;;;;;;5.20;4.90;;;23.20;50.00;;;;;;4998934;28;20465;-57
2023/10/14 01:28:30;;;;;;;4.53;4.23;;;23.20;50.00;;;;;;4995399;28;20498;-59
2023/10/14 01:34:01;;;;;;;4.83;4.53;;;23.20;50.00;;;;;;5009043;28;20456;-61
2023/10/14 01:36:32;;;;;;;4.20;4.00;;;23.20;50.10;;;;;;5011409;28;21015;-57
2023/10/14 01:39:04;;;;;;;4.33;4.13;;;23.20;50.10;;;;;;4994576;28;20541;-59
2023/10/14 01:41:30;;;;;;;4.97;4.50;;;23.20;50.10;;;;;;5010042;28;20460;-58
2023/10/14 01:43:58;;;;;;;5.33;5.03;;;23.20;50.10;;;;;;5013194;28;20472;-59
2023/10/14 01:46:27;;;;;;;5.20;4.90;;;23.20;50.10;;;;;;5010174;28;20306;-61
2023/10/14 01:48:55;;;;;;;4.63;4.43;;;23.20;50.80;;;;;;4992840;28;20468;-59
2023/10/14 01:51:21;;;;;;;4.43;4.23;;;23.20;50.10;;;;;;4994697;28;20466;-58
2023/10/14 01:53:47;;;;;;;5.10;4.70;;;23.20;50.10;;;;;;5004790;28;20932;-58
2023/10/14 01:56:12;;;;;;;5.03;4.73;;;23.20;50.10;;;;;;4998710;28;20227;-57
2023/10/14 01:58:40;;;;;;;4.30;4.10;;;23.20;50.10;;;;;;4997320;28;20230;-58
2023/10/14 02:03:54;;;;;;;4.37;4.17;;;23.20;50.20;;;;;;4994881;28;20456;-60
2023/10/14 02:06:26;;;;;;;4.83;4.33;;;23.20;50.20;;;;;;5010923;28;20456;-59
2023/10/14 02:08:53;;;;;;;5.40;5.00;;;23.20;50.10;;;;;;5008614;28;20492;-60
2023/10/14 02:11:26;;;;;;;4.90;4.60;;;23.20;50.20;;;;;;5000421;28;20449;-58
2023/10/14 02:13:52;;;;;;;4.77;4.47;;;23.20;50.20;;;;;;4995221;28;20453;-58
2023/10/14 02:16:43;;;;;;;5.40;5.10;;;23.20;50.20;;;;;;5003935;28;25532;-59
2023/10/14 02:19:36;;;;;;;4.87;4.57;;;23.20;50.10;;;;;;5003492;28;20212;-60
2023/10/14 02:22:02;;;;;;;4.03;3.83;;;23.20;50.20;;;;;;4996636;28;20457;-60
2023/10/14 02:24:28;;;;;;;4.00;3.80;;;23.20;50.90;;;;;;5001063;28;20506;-59
2023/10/14 02:26:57;;;;;;;4.40;4.10;;;23.20;50.10;;;;;;4991224;28;20464;-58
2023/10/14 02:29:24;;;;;;;4.60;4.40;;;23.20;50.20;;;;;;4991628;28;20454;-59
2023/10/14 02:31:50;;;;;;;4.10;3.87;;;23.20;50.20;;;;;;4991729;28;20488;-63
2023/10/14 02:34:15;;;;;;;4.60;4.27;;;23.20;50.20;;;;;;4996670;28;20585;-59
2023/10/14 02:36:42;;;;;;;4.10;3.90;;;23.20;50.20;;;;;;5009200;28;20691;-59
2023/10/14 02:39:17;;;;;;;3.80;3.60;;;23.20;50.20;;;;;;4998040;28;20223;-58
2023/10/14 02:41:58;;;;;;;3.63;3.43;;;23.20;50.90;;;;;;4990671;28;21178;-58
2023/10/14 02:44:28;;;;;;;3.57;3.37;;;23.20;50.20;;;;;;4990729;28;20486;-58
2023/10/14 02:46:54;;;;;;;3.70;3.50;;;23.20;50.20;;;;;;4994414;28;20480;-58
2023/10/14 02:49:24;;;;;;;3.70;3.50;;;23.20;50.20;;;;;;4995428;28;20954;-59
2023/10/14 02:51:52;;;;;;;3.67;3.47;;;23.20;50.20;;;;;;4997124;28;20457;-62
2023/10/14 02:54:26;;;;;;;3.13;2.93;;;23.20;50.20;;;;;;4999758;28;20516;-59
2023/10/14 02:56:59;;;;;;;3.00;2.80;;;23.20;50.20;;;;;;4989034;28;20706;-59
2023/10/14 03:07:27;;;;;;;2.83;2.63;;;23.20;50.30;;;;;;4993737;28;20699;-60
2023/10/14 03:09:53;;;;;;;2.53;2.43;;;23.20;50.20;;;;;;5008330;28;20510;-58
2023/10/14 03:12:19;;;;;;;2.80;2.70;;;23.20;50.20;;;;;;5004724;28;20448;-58
2023/10/14 03:14:55;;;;;;;2.57;2.40;;;23.20;50.20;;;;;;4994675;28;21007;-59
2023/10/14 03:17:25;;;;;;;2.57;2.37;;;23.20;50.20;;;;;;4993130;28;20230;-59
2023/10/14 03:19:53;;;;;;;2.20;2.10;;;23.20;50.30;;;;;;5014644;28;20534;-59
2023/10/14 03:22:22;;;;;;;2.47;2.37;;;23.20;50.20;;;;;;5012153;28;21064;-59
2023/10/14 03:24:50;;;;;;;2.40;2.20;;;23.20;50.20;;;;;;4997072;28;20456;-60
2023/10/14 03:27:16;;;;;;;2.50;2.30;;;23.20;50.20;;;;;;5004981;28;20519;-59
2023/10/14 03:29:46;;;;;;;2.03;1.93;;;23.10;50.10;;;;;;5010119;28;20476;-59
2023/10/14 03:32:11;;;;;;;2.20;2.10;;;23.20;50.20;;;;;;4988414;28;20219;-58
2023/10/14 03:34:41;;;;;;;2.00;1.90;;;23.20;50.20;;;;;;4987235;28;20496;-59
2023/10/14 03:37:18;;;;;;;2.10;2.00;;;23.20;50.20;;;;;;4988254;28;20239;-63
2023/10/14 03:39:54;;;;;;;1.63;1.53;;;23.10;50.10;;;;;;4989633;28;20488;-59
2023/10/14 03:42:22;;;;;;;1.67;1.57;;;23.10;50.10;;;;;;4991151;28;20456;-61
2023/10/14 03:44:47;;;;;;;1.63;1.53;;;23.10;50.10;;;;;;4990207;28;20465;-60
2023/10/14 03:47:16;;;;;;;1.70;1.60;;;23.10;50.00;;;;;;4990846;28;20476;-58
2023/10/14 03:49:55;;;;;;;1.83;1.73;;;23.10;50.10;;;;;;5000694;28;20217;-58
2023/10/14 03:52:22;;;;;;;1.40;1.30;;;23.10;50.10;;;;;;4999270;28;20465;-58
2023/10/14 03:54:50;;;;;;;1.70;1.60;;;23.10;50.10;;;;;;5010075;28;20465;-59
2023/10/14 03:57:19;;;;;;;1.80;1.70;;;23.10;50.00;;;;;;5005642;28;20466;-59
2023/10/14 03:59:48;;;;;;;1.50;1.40;;;23.10;50.00;;;;;;5003836;28;20566;-59
2023/10/14 04:02:22;;;;;;;1.50;1.40;;;23.10;50.00;;;;;;5010496;28;20523;-58
2023/10/14 04:04:48;;;;;;;1.30;1.20;;;23.10;50.00;;;;;;5002716;28;20447;-63
2023/10/14 04:07:15;;;;;;;1.50;1.40;;;23.10;50.00;;;;;;4993300;28;20530;-58
2023/10/14 04:09:56;;;;;;;1.50;1.40;;;23.10;50.00;;;;;;4989769;28;20226;-60
2023/10/14 04:12:38;;;;;;;1.97;1.27;;;23.10;50.00;;;;;;4995992;28;20452;-58
2023/10/14 04:15:06;;;;;;;1.30;1.20;;;23.10;50.00;;;;;;4994319;28;20461;-58
2023/10/14 04:17:32;;;;;;;1.20;1.10;;;23.10;50.00;;;;;;4989286;28;20545;-58
2023/10/14 04:20:14;;;;;;;1.20;1.10;;;23.10;50.00;;;;;;5002277;28;20453;-60
2023/10/14 04:22:39;;;;;;;1.30;1.20;;;23.10;50.80;;;;;;4994537;28;20919;-59
2023/10/14 04:30:38;;;;;;;1.43;1.33;;;23.10;50.00;;;;;;4999224;28;20461;-59
2023/10/14 04:33:16;;;;;;;1.20;1.10;;;23.10;50.00;;;;;;4992620;28;20465;-59
2023/10/14 04:35:57;;;;;;;1.10;1.00;;;23.10;50.00;;;;;;5008750;28;20516;-58
2023/10/14 04:38:28;;;;;;;1.33;1.23;;;23.10;50.00;;;;;;4998498;28;20472;-59
2023/10/14 04:40:58;;;;;;;1.27;1.17;;;23.10;50.00;;;;;;4998074;28;21038;-57
2023/10/14 04:45:55;;;;;;;1.20;1.10;;;23.10;50.00;;;;;;4996779;28;20445;-59
2023/10/14 04:49:07;;;;;;;1.20;1.10;;;23.10;50.00;;;;;;4994225;28;20991;-59
2023/10/14 04:51:18;;;;;;;1.10;1.00;;;23.10;49.90;;;;;;5007914;28;20521;-62
2023/10/14 04:53:44;;;;;;;1.10;1.00;;;23.10;49.90;;;;;;5011630;28;20499;-58
2023/10/14 04:56:29;;;;;;;0.90;0.90;;;23.10;49.90;;;;;;5001500;28;21059;-58
2023/10/14 04:58:55;;;;;;;1.00;0.80;;;23.10;49.90;;;;;;4997001;28;20474;-59
2023/10/14 05:01:24;;;;;;;1.10;1.00;;;23.10;49.90;;;;;;4994182;28;20449;-59
2023/10/14 05:03:55;;;;;;;2.40;1.07;;;23.10;49.80;;;;;;5000283;28;20251;-61
2023/10/14 05:06:21;;;;;;;1.33;1.10;;;23.10;49.80;;;;;;5000044;28;20504;-60
2023/10/14 05:08:56;;;;;;;1.40;1.10;;;23.10;49.80;;;;;;5000419;28;20443;-58
2023/10/14 05:11:25;;;;;;;1.50;1.40;;;23.10;49.80;;;;;;4991452;28;20230;-60
2023/10/14 05:14:08;;;;;;;1.33;0.93;;;23.20;49.90;;;;;;5002375;28;20910;-58
2023/10/14 05:16:55;;;;;;;1.27;1.17;;;23.20;49.80;;;;;;4989447;28;20471;-63
2023/10/14 05:19:26;;;;;;;0.80;0.80;;;23.20;49.90;;;;;;5000560;28;20548;-59
2023/10/14 05:21:57;;;;;;;0.97;0.87;;;23.20;49.80;;;;;;5001622;28;20979;-58
2023/10/14 05:24:28;;;;;;;1.23;1.07;;;23.20;49.80;;;;;;5013496;28;20484;-59
2023/10/14 05:26:59;;;;;;;1.37;1.20;;;23.20;49.80;;;;;;4998771;28;20459;-59
2023/10/14 05:29:27;;;;;;;1.77;1.07;;;23.20;49.70;;;;;;5016861;28;20465;-60
2023/10/14 05:32:01;;;;;;;1.00;0.80;;;23.20;49.70;;;;;;5013356;28;20479;-60
2023/10/14 05:34:29;;;;;;;1.10;0.97;;;23.20;49.70;;;;;;4994090;28;20492;-59
2023/10/14 05:36:57;;;;;;;1.10;0.80;;;23.20;49.60;;;;;;5005690;28;20495;-60
2023/10/14 05:39:24;;;;;;;1.20;1.10;;;23.20;49.60;;;;;;5012194;28;20816;-62
2023/10/14 05:41:58;;;;;;;1.37;1.00;;;23.20;49.60;;;;;;5000009;28;20459;-62
2023/10/14 05:44:27;;;;;;;1.40;1.00;;;23.20;49.60;;;;;;5005642;28;20482;-59
2023/10/14 05:46:53;;;;;;;1.20;0.93;;;23.20;49.60;;;;;;5006649;28;20885;-61
2023/10/14 05:49:24;;;;;;;1.07;0.97;;;23.20;49.50;;;;;;5007611;28;21244;-59
2023/10/14 05:51:52;;;;;;;1.30;1.00;;;23.20;49.50;;;;;;4995741;28;20563;-61
2023/10/14 05:54:19;;;;;;;1.17;0.90;;;23.20;49.50;;;;;;4990898;28;20453;-59
2023/10/14 05:56:45;;;;;;;2.90;1.10;;;23.20;49.50;;;;;;5007957;28;20467;-62
2023/10/14 05:59:10;;;;;;;0.90;0.80;;;23.20;49.50;;;;;;5008267;28;20452;-59
2023/10/14 06:01:38;;;;;;;1.00;0.90;;;23.20;49.40;;;;;;4993544;28;20220;-59
2023/10/14 06:04:04;;;;;;;1.00;0.90;;;23.20;49.50;;;;;;4993139;28;20676;-60
2023/10/14 06:06:31;;;;;;;0.97;0.87;;;23.20;49.40;;;;;;5005167;28;20464;-61
2023/10/14 06:09:00;;;;;;;1.20;0.90;;;23.20;49.40;;;;;;5004610;28;20223;-57
2023/10/14 06:11:26;;;;;;;1.00;0.90;;;23.20;49.40;;;;;;5012001;28;20833;-60
2023/10/14 06:13:51;;;;;;;0.90;0.80;;;23.20;49.30;;;;;;4987894;28;21035;-58
2023/10/14 06:16:17;;;;;;;1.40;1.10;;;23.20;49.30;;;;;;4992985;28;20226;-58
2023/10/14 06:18:47;;;;;;;0.80;0.77;;;23.20;49.30;;;;;;4993376;28;20338;-58
2023/10/14 06:21:15;;;;;;;0.90;0.90;;;23.20;49.30;;;;;;4993465;28;20635;-57
2023/10/14 06:23:46;;;;;;;0.93;0.90;;;23.20;49.40;;;;;;4994936;28;21099;-59
2023/10/14 06:26:16;;;;;;;2.20;1.00;;;23.20;49.30;;;;;;5015001;28;20479;-58
2023/10/14 06:28:42;;;;;;;0.87;0.87;;;23.20;49.30;;;;;;4997707;28;20446;-58
2023/10/14 06:31:08;;;;;;;2.40;0.90;;;23.20;49.30;;;;;;4990927;28;20949;-60
2023/10/14 06:33:33;;;;;;;1.13;1.00;;;23.20;49.30;;;;;;4990232;28;20464;-60
2023/10/14 06:36:03;;;;;;;1.20;1.00;;;23.20;49.40;;;;;;4992219;28;20243;-58
2023/10/14 06:38:29;;;;;;;1.10;1.00;;;23.20;49.40;;;;;;5012454;28;20266;-60
2023/10/14 06:41:01;;;;;;;1.00;0.90;;;23.20;49.30;;;;;;4993043;28;20467;-58
2023/10/14 06:43:27;;;;;;;1.20;1.10;;;23.20;49.30;;;;;;4995491;28;20953;-58
2023/10/14 06:45:54;;;;;;;1.00;0.90;;;23.20;49.30;;;;;;5010679;28;20520;-59
2023/10/14 06:48:19;;;;;;;1.07;0.93;;;23.20;49.30;;;;;;4998534;28;20577;-58
2023/10/14 06:50:47;;;;;;;1.00;0.90;;;23.20;49.30;;;;;;4988680;28;20459;-60
2023/10/14 06:53:15;;;;;;;1.13;0.90;;;23.20;49.40;;;;;;4996028;28;20224;-59
2023/10/14 06:55:41;;;;;;;1.10;1.00;;;23.20;49.40;;;;;;4999264;28;20450;-61
2023/10/14 06:58:08;;;;;;;1.30;1.20;;;23.20;49.30;;;;;;5010077;28;20846;-58
2023/10/14 07:00:37;;;;;;;1.00;0.80;;;23.20;49.30;;;;;;4992245;28;20224;-58
2023/10/14 07:03:06;;;;;;;1.20;1.10;;;23.20;49.30;;;;;;4999205;28;20460;-59
2023/10/14 07:05:38;;;;;;;1.10;0.90;;;23.20;49.30;;;;;;4995446;28;20438;-59
2023/10/14 07:08:04;;;;;;;1.37;1.00;;;23.20;49.40;;;;;;4994928;28;20812;-58
2023/10/14 07:10:32;;;;;;;1.23;1.13;;;23.20;49.30;;;;;;5005859;28;20440;-60
2023/10/14 07:13:00;;;;;;;1.10;1.00;;;23.20;49.30;;;;;;5015327;28;20346;-59
2023/10/14 07:15:27;;;;;;;1.10;1.00;;;23.20;49.30;;;;;;5009422;28;21217;-58
2023/10/14 07:17:54;;;;;;;1.73;1.07;;;23.20;49.30;;;;;;4986316;28;22271;-60
2023/10/14 07:20:20;;;;;;;1.10;1.00;;;23.20;49.30;;;;;;5013697;28;20529;-61
2023/10/14 07:22:45;;;;;;;0.73;0.73;;;23.20;49.30;;;;;;5004620;28;20969;-61
2023/10/14 07:25:12;;;;;;;1.37;1.20;;;23.20;49.40;;;;;;4993734;28;20258;-59
2023/10/14 07:27:38;;;;;;;1.30;1.20;;;23.20;49.60;;;;;;4989749;28;20231;-59
2023/10/14 07:30:13;;;;;;;1.10;1.00;;;23.20;49.30;;;;;;4992847;28;20455;-62
2023/10/14 07:32:44;;;;;;;1.00;0.90;;;23.20;49.30;;;;;;5004529;28;20218;-62
2023/10/14 07:35:11;;;;;;;1.10;1.00;;;23.20;49.30;;;;;;4992507;28;21073;-61
2023/10/14 07:37:40;;;;;;;1.10;0.90;;;23.20;49.30;;;;;;4997564;28;20480;-60
2023/10/14 07:40:11;;;;;;;1.10;1.00;;;23.20;49.30;;;;;;5005427;28;20451;-65
2023/10/14 07:42:40;;;;;;;1.20;1.10;;;23.20;49.30;;;;;;5008346;28;20455;-60
2023/10/14 07:45:10;;;;;;;1.30;1.17;;;23.20;49.30;;;;;;5008818;28;20476;-60
2023/10/14 07:47:37;;;;;;;1.23;1.03;;;23.20;49.30;;;;;;5004213;28;20457;-59
2023/10/14 07:50:09;;;;;;;1.23;1.13;;;23.20;49.20;;;;;;4988430;28;20465;-61
2023/10/14 07:52:36;;;;;;;1.30;1.20;;;23.20;49.20;;;;;;4986208;28;20453;-61
2023/10/14 07:55:02;;;;;;;1.10;1.00;;;23.20;49.30;;;;;;4987015;28;20789;-65
2023/10/14 07:57:27;;;;;;;1.60;1.50;;;23.20;49.20;;;;;;5005559;28;20504;-61
2023/10/14 07:59:59;;;;;;;1.10;1.00;;;23.20;49.20;;;;;;4997112;28;20526;-59
2023/10/14 08:02:26;;;;;;;1.40;1.30;;;23.30;49.30;;;;;;4987705;28;20676;-60
2023/10/14 08:04:53;;;;;;;1.20;1.10;;;23.20;49.20;;;;;;5001945;28;20460;-61
2023/10/14 08:07:19;;;;;;;1.20;1.10;;;23.20;49.20;;;;;;4986126;28;25781;-59
2023/10/14 08:09:45;;;;;;;1.47;1.20;;;23.30;49.40;;;;;;4987331;28;20480;-60
2023/10/14 08:12:14;;;;;;;1.10;1.00;;;23.20;49.20;;;;;;5006070;28;20464;-59
2023/10/14 08:14:40;;;;;;;1.30;1.20;;;23.30;49.30;;;;;;5000632;28;20247;-60
2023/10/14 08:17:11;;;;;;;1.33;1.03;;;23.30;49.20;;;;;;4979547;28;20991;-63
2023/10/14 08:19:40;;;;;;;1.43;1.33;;;23.30;49.30;;;;;;4983242;28;20838;-61
2023/10/14 08:22:08;;;;;;;1.27;1.03;;;23.30;49.30;;;;;;4990388;28;20454;-62
2023/10/14 08:24:33;;;;;;;1.10;1.00;;;23.30;49.20;;;;;;4996772;28;20465;-60
2023/10/14 08:26:59;;;;;;;1.20;1.10;;;23.20;49.10;;;;;;4989329;28;20527;-60
2023/10/14 08:29:26;;;;;;;1.40;1.30;;;23.30;49.20;;;;;;4988041;28;20699;-60
2023/10/14 08:31:53;;;;;;;1.27;1.17;;;23.20;49.00;;;;;;4980979;28;20477;-60
2023/10/14 08:34:23;;;;;;;1.37;1.23;;;23.20;49.00;;;;;;4980614;28;20466;-59
2023/10/14 08:36:49;;;;;;;1.30;1.20;;;23.20;49.00;;;;;;4987354;28;24046;-63
2023/10/14 08:39:14;;;;;;;1.20;1.10;;;23.20;49.00;;;;;;5001366;28;20469;-62
2023/10/14 08:41:45;;;;;;;1.10;1.00;;;23.20;49.00;;;;;;4991207;28;20518;-60
2023/10/14 08:44:11;;;;;;;2.57;1.50;;;23.30;49.10;;;;;;4979286;28;20707;-60
2023/10/14 08:46:39;;;;;;;87.20;9.73;;;23.30;49.10;;;;;;4982073;28;20465;-60
2023/10/14 08:49:08;;;;;;;205.80;17.87;;;23.30;48.90;;;;;;4984870;28;20468;-60
2023/10/14 08:51:37;;;;;;;34.83;6.53;;;23.30;48.80;;;;;;4984681;28;20468;-60
2023/10/14 08:54:06;;;;;;;28.63;5.53;;;23.30;48.60;;;;;;4986008;28;20995;-59
2023/10/14 08:56:34;;;;;;;14.90;3.80;;;23.30;48.60;;;;;;4986585;28;20576;-62
2023/10/14 08:59:00;;;;;;;16.47;3.73;;;23.30;48.50;;;;;;4973384;28;20508;-61
2023/10/14 09:01:27;;;;;;;11.17;3.13;;;23.30;48.50;;;;;;4985660;28;20848;-60
2023/10/14 09:03:53;;;;;;;8.67;3.83;;;23.30;48.40;;;;;;4985504;28;20469;-62
2023/10/14 09:06:21;;;;;;;10.10;3.73;;;23.30;48.40;;;;;;4978689;28;20609;-59
2023/10/14 09:08:51;;;;;;;14.77;3.07;;;23.30;48.30;;;;;;4999453;28;20763;-59
2023/10/14 09:11:33;;;;;;;6.40;3.10;;;23.30;48.20;;;;;;4988280;28;21311;-62
2023/10/14 09:14:04;;;;;;;17.53;3.80;;;23.30;48.10;;;;;;4986423;28;20461;-59
2023/10/14 09:16:32;;;;;;;9.00;2.40;;;23.30;47.90;;;;;;4986030;28;20477;-59
2023/10/14 09:18:59;;;;;;;6.27;2.13;;;23.30;47.80;;;;;;4985496;28;21250;-61
2023/10/14 09:21:25;;;;;;;4.40;2.60;;;23.30;47.60;;;;;;4999723;28;20472;-61
2023/10/14 09:23:51;;;;;;;5.23;1.93;;;23.30;47.60;;;;;;4984635;28;20449;-59
2023/10/14 09:26:18;;;;;;;2.30;1.90;;;23.30;47.60;;;;;;4994845;28;20231;-59
2023/10/14 09:28:45;;;;;;;4.93;1.87;;;23.30;47.60;;;;;;4990006;28;20465;-59
2023/10/14 09:31:12;;;;;;;3.07;1.80;;;23.30;47.60;;;;;;4991229;28;20461;-62
2023/10/14 09:33:42;;;;;;;3.27;2.17;;;23.30;47.50;;;;;;4987161;28;20619;-60
2023/10/14 09:36:14;;;;;;;5.93;2.43;;;23.30;47.60;;;;;;5004764;28;20457;-59
2023/10/14 09:38:40;;;;;;;3.00;1.60;;;23.30;47.60;;;;;;5004650;28;21074;-59
2023/10/14 09:41:08;;;;;;;3.77;1.70;;;23.30;47.60;;;;;;5009915;28;21031;-59
2023/10/14 09:43:34;;;;;;;4.13;1.90;;;23.30;47.60;;;;;;4997879;28;20543;-59
2023/10/14 09:46:04;;;;;;;5.17;1.83;;;23.30;47.60;;;;;;5012377;28;20476;-59
2023/10/14 09:48:31;;;;;;;1.73;1.40;;;23.30;48.30;;;;;;5008185;28;20537;-62
2023/10/14 09:51:00;;;;;;;25.93;2.63;;;23.30;47.60;;;;;;4996656;28;21341;-60
2023/10/14 09:53:27;;;;;;;7.90;3.10;;;23.30;47.60;;;;;;5009235;28;20469;-59
2023/10/14 09:56:06;;;;;;;2.40;1.20;;;23.30;47.60;;;;;;5009968;28;20544;-61
2023/10/14 09:58:34;;;;;;;1.37;1.20;;;23.30;47.60;;;;;;5001036;28;20468;-62
2023/10/14 10:01:03;;;;;;;1.73;1.40;;;23.30;47.40;;;;;;4995125;28;20460;-59
2023/10/14 10:03:34;;;;;;;3.63;1.40;;;23.30;47.40;;;;;;4986888;28;20473;-60
2023/10/14 10:06:27;;;;;;;3.10;1.17;;;23.30;47.30;;;;;;4995355;28;20467;-59
2023/10/14 10:08:59;;;;;;;2.17;1.30;;;23.30;47.00;;;;;;5001614;28;20445;-59
2023/10/14 10:11:27;;;;;;;2.10;1.03;;;23.30;46.90;;;;;;4989552;28;20446;-59
2023/10/14 10:13:53;;;;;;;1.50;1.10;;;23.30;46.90;;;;;;4998374;28;20467;-61
2023/10/14 10:16:20;;;;;;;1.57;1.20;;;23.30;46.70;;;;;;4998226;28;20465;-59
2023/10/14 10:18:58;;;;;;;1.10;1.00;;;23.30;46.70;;;;;;4992010;28;20235;-60
2023/10/14 10:21:40;;;;;;;1.20;1.00;;;23.30;46.60;;;;;;5008659;28;20503;-59
2023/10/14 10:24:17;;;;;;;1.27;1.17;;;23.30;46.70;;;;;;5000231;28;20469;-59
2023/10/14 10:27:04;;;;;;;1.20;1.00;;;23.30;46.50;;;;;;4990954;28;20464;-58
2023/10/14 10:29:42;;;;;;;1.17;1.07;;;23.40;46.70;;;;;;5012899;28;20571;-59
2023/10/14 10:32:09;;;;;;;1.20;1.10;;;23.30;46.50;;;;;;4988997;28;20521;-61
2023/10/14 10:35:06;;;;;;;1.20;1.00;;;23.40;46.50;;;;;;4999259;28;20881;-59
2023/10/14 10:37:47;;;;;;;1.20;0.90;;;23.40;46.40;;;;;;4991114;28;20457;-59
2023/10/14 10:40:15;;;;;;;1.17;0.90;;;23.30;46.40;;;;;;4994493;28;20829;-59
2023/10/14 10:42:45;;;;;;;1.83;1.00;;;23.40;46.50;;;;;;4989435;28;20458;-61
2023/10/14 10:45:26;;;;;;;1.37;1.03;;;23.40;46.40;;;;;;4979457;28;20471;-60
2023/10/14 10:47:54;;;;;;;1.93;0.80;;;23.40;46.40;;;;;;4990826;28;20452;-62
2023/10/14 10:50:22;;;;;;;0.87;0.80;;;23.40;46.40;;;;;;4986067;28;20536;-60
2023/10/14 10:53:20;;;;;;;0.90;0.80;;;23.40;47.20;;;;;;4986761;28;20464;-61
2023/10/14 10:55:48;;;;;;;1.10;0.90;;;23.40;46.40;;;;;;5003630;28;20543;-59
2023/10/14 10:58:14;;;;;;;1.00;0.83;;;23.40;46.40;;;;;;4986883;28;20578;-59
2023/10/14 11:00:45;;;;;;;0.97;0.70;;;23.40;46.30;;;;;;4984364;28;20515;-60
2023/10/14 11:03:14;;;;;;;1.10;0.90;;;23.40;46.30;;;;;;4986625;28;20462;-59
2023/10/14 11:05:46;;;;;;;1.10;0.87;;;23.40;46.40;;;;;;4991775;28;20464;-59
2023/10/14 11:08:18;;;;;;;0.80;0.80;;;23.40;46.40;;;;;;5000284;28;20475;-58
2023/10/14 11:10:44;;;;;;;1.13;1.00;;;23.40;46.40;;;;;;4982455;28;20555;-61
2023/10/14 11:13:13;;;;;;;1.00;0.80;;;23.40;46.30;;;;;;4997357;28;20987;-61
2023/10/14 11:15:40;;;;;;;0.97;0.70;;;23.40;46.40;;;;;;4985713;28;20570;-59
2023/10/14 11:18:09;;;;;;;0.70;0.60;;;23.40;46.40;;;;;;4997316;28;20583;-60
2023/10/14 11:20:43;;;;;;;1.10;0.90;;;23.40;46.40;;;;;;4997668;28;20453;-62
2023/10/14 11:23:09;;;;;;;0.90;0.70;;;23.40;46.30;;;;;;4995941;28;20468;-61
2023/10/14 11:25:40;;;;;;;0.80;0.70;;;23.40;46.30;;;;;;4988773;28;20457;-62
2023/10/14 11:28:10;;;;;;;0.90;0.70;;;23.40;46.30;;;;;;4995890;28;20492;-60
2023/10/14 11:30:46;;;;;;;0.60;0.60;;;23.50;46.50;;;;;;4987664;28;20516;-60
2023/10/14 11:33:14;;;;;;;0.83;0.70;;;23.50;47.20;;;;;;4998236;28;22171;-61
2023/10/14 11:35:40;;;;;;;0.83;0.77;;;23.50;46.40;;;;;;4985812;28;20478;-59
2023/10/14 11:38:07;;;;;;;0.90;0.80;;;23.50;46.50;;;;;;4991365;28;20496;-60
2023/10/14 11:40:38;;;;;;;0.63;0.60;;;23.50;46.40;;;;;;5003414;28;20465;-62
2023/10/14 11:43:11;;;;;;;0.77;0.70;;;23.50;46.40;;;;;;5001815;28;20480;-60
2023/10/14 11:45:44;;;;;;;0.80;0.70;;;23.50;46.40;;;;;;4989714;28;20957;-61
2023/10/14 11:48:26;;;;;;;2.63;0.70;;;23.50;46.40;;;;;;4996166;28;22630;-62
2023/10/14 11:51:00;;;;;;;0.70;0.67;;;23.50;46.30;;;;;;5004680;28;20498;-58
2023/10/14 11:53:31;;;;;;;0.80;0.70;;;23.50;46.30;;;;;;4995617;28;20479;-59
2023/10/14 11:55:58;;;;;;;0.80;0.63;;;23.50;46.20;;;;;;4999297;28;20504;-59
2023/10/14 11:58:28;;;;;;;0.80;0.70;;;23.50;46.20;;;;;;4985216;28;20985;-58
2023/10/14 12:00:55;;;;;;;0.90;0.80;;;23.50;46.10;;;;;;4997535;28;20867;-60
2023/10/14 12:03:20;;;;;;;0.90;0.80;;;23.50;46.10;;;;;;5004003;28;20457;-59
2023/10/14 12:05:46;;;;;;;0.83;0.70;;;23.50;46.10;;;;;;5005433;28;20866;-58
2023/10/14 12:08:12;;;;;;;0.70;0.60;;;23.50;46.10;;;;;;4992607;28;20314;-59
2023/10/14 12:10:37;;;;;;;1.30;0.60;;;23.50;46.00;;;;;;4992448;28;20220;-60
2023/10/14 12:13:03;;;;;;;0.77;0.70;;;23.50;46.00;;;;;;4985790;28;20228;-59
2023/10/14 12:15:35;;;;;;;0.70;0.60;;;23.50;45.90;;;;;;4983714;28;20306;-59
2023/10/14 12:18:03;;;;;;;0.70;0.60;;;23.50;45.90;;;;;;4984366;28;20503;-60
2023/10/14 12:20:29;;;;;;;0.80;0.70;;;23.50;45.90;;;;;;4985495;28;20603;-59
2023/10/14 12:22:55;;;;;;;0.80;0.70;;;23.50;45.90;;;;;;4986164;28;20512;-58
2023/10/14 12:25:20;;;;;;;0.80;0.70;;;23.50;45.90;;;;;;4990880;28;20224;-59
2023/10/14 12:27:48;;;;;;;0.63;0.50;;;23.50;45.90;;;;;;4986171;28;20253;-58
2023/10/14 12:30:28;;;;;;;0.77;0.67;;;23.50;45.90;;;;;;4996318;28;20313;-59
2023/10/14 12:32:54;;;;;;;0.97;0.60;;;23.50;45.90;;;;;;4993280;28;20572;-59
2023/10/14 12:35:27;;;;;;;0.70;0.60;;;23.50;45.90;;;;;;4989722;28;20531;-60
2023/10/14 12:37:55;;;;;;;0.87;0.70;;;23.50;45.90;;;;;;5000390;28;20522;-58
2023/10/14 12:40:24;;;;;;;0.87;0.70;;;23.50;45.90;;;;;;4987699;28;20455;-59
2023/10/14 12:42:50;;;;;;;0.80;0.60;;;23.50;45.90;;;;;;4995848;28;21023;-59
2023/10/14 12:45:25;;;;;;;1.10;0.70;;;23.50;45.90;;;;;;4984343;28;20461;-59
2023/10/14 12:48:09;;;;;;;0.70;0.60;;;23.50;45.90;;;;;;4987782;28;20561;-60
2023/10/14 12:50:56;;;;;;;0.80;0.80;;;23.50;45.90;;;;;;4997982;28;20522;-62
2023/10/14 12:53:21;;;;;;;1.00;0.90;;;23.50;45.90;;;;;;4991950;28;20470;-59
2023/10/14 12:55:46;;;;;;;0.60;0.50;;;23.50;45.90;;;;;;4989807;28;20865;-62
2023/10/14 12:58:12;;;;;;;0.60;0.60;;;23.50;45.90;;;;;;4991009;28;20314;-60
2023/10/14 13:00:39;;;;;;;0.80;0.60;;;23.50;45.90;;;;;;4985932;28;20237;-58
2023/10/14 13:03:09;;;;;;;0.73;0.60;;;23.50;45.90;;;;;;4989252;28;20313;-60
2023/10/14 13:05:35;;;;;;;0.63;0.53;;;23.50;45.90;;;;;;4991636;28;20469;-58
2023/10/14 13:08:02;;;;;;;0.70;0.63;;;23.50;45.90;;;;;;5005268;28;21002;-58
2023/10/14 13:10:28;;;;;;;1.10;1.00;;;23.50;45.80;;;;;;4990863;28;20461;-60
2023/10/14 13:12:58;;;;;;;0.87;0.70;;;23.50;45.80;;;;;;5009159;28;20506;-58
2023/10/14 13:15:29;;;;;;;0.73;0.70;;;23.50;45.80;;;;;;5008662;28;20535;-62
2023/10/14 13:17:57;;;;;;;0.90;0.63;;;23.50;45.80;;;;;;4981447;28;21241;-59
2023/10/14 13:20:28;;;;;;;0.70;0.60;;;23.50;45.70;;;;;;4984006;28;20460;-60
2023/10/14 13:23:08;;;;;;;0.80;0.70;;;23.50;45.70;;;;;;4983040;28;20584;-60